PWSweather.com
Personal Weather Stations
Station Observations
MDHALE1
Southwest Baltimore Co., Halethorpe, MD 21227

Southwest Baltimore Co.Halethorpe, MD 21227

Lat: 39.23643, Lon: -76.696959

Elevation: 86

Station Type: Davis Vantage Pro2+

http://home.comcast.net/~halethorpe_weather/index.html

Latest ConditionsUpdated 4:30:14 PM EDT Thursday, Oct 23, 2014
Currently Today's Max Today's Min Today's Average
Temperature 63.1°F17.3°C 63.1°F17.3°C 51.6°F10.9°C 55.5°F13.1°C
Dew Point 46.7°F8.2°C 46.9°F8.3°C 42.8°F6.0°C 44.4°F6.9°C
Winds 7.0 mph W11.3 kmh W 11.7 mph WNW18.8 kmh WNW - 4.0 mph 6.4 kmh
Wind Gusts 10.3 mph16.6 kmh 20.5 mph33.0 kmh - -
Humidity 55% 73% 55% 66%
Pressure 29.80 in1009.1 mb 29.88 in1011.9 mb 29.79 in1008.8 mb -
Precipitation - 0.01 in0.3 mm - -
Hour Temp Dew Point Humidity Winds Wind Gusts Pressure Precip Precip Rate Daily Precip Total
04:30 PM 63.1°F17.3°C 46.7°F8.2°C 55% 7.0 mph W11.3 kmh W 10.3 mph16.6 kmh 29.80 in1009.1 mb 0.00 in0.0 mm 0.00 in/hr0.0 mm/hr 0.01 in0.3 mm
04:15 PM 62.9°F17.2°C 46.9°F8.3°C 56% 4.1 mph WNW6.6 kmh WNW 11.4 mph18.3 kmh 29.79 in1008.8 mb 0.00 in0.0 mm 0.00 in/hr0.0 mm/hr 0.01 in0.3 mm
04:00 PM 62.4°F16.9°C 46.9°F8.3°C 57% 5.4 mph NNE8.7 kmh NNE 9.1 mph14.6 kmh 29.81 in1009.5 mb 0.00 in0.0 mm 0.00 in/hr0.0 mm/hr 0.01 in0.3 mm
03:45 PM 61.3°F16.3°C 46.8°F8.2°C 59% 5.2 mph NE8.4 kmh NE 12.5 mph20.1 kmh 29.81 in1009.5 mb 0.00 in0.0 mm 0.00 in/hr0.0 mm/hr 0.01 in0.3 mm
03:30 PM 61.0°F16.1°C 46.1°F7.8°C 58% 5.6 mph NNE9.0 kmh NNE 13.7 mph22.0 kmh 29.81 in1009.5 mb 0.00 in0.0 mm 0.00 in/hr0.0 mm/hr 0.01 in0.3 mm
03:15 PM 61.0°F16.1°C 46.6°F8.1°C 59% 4.5 mph WNW7.2 kmh WNW 6.8 mph10.9 kmh 29.81 in1009.5 mb 0.00 in0.0 mm 0.00 in/hr0.0 mm/hr 0.01 in0.3 mm
03:00 PM 61.0°F16.1°C 46.1°F7.8°C 58% 5.7 mph NW9.2 kmh NW 12.5 mph20.1 kmh 29.81 in1009.5 mb 0.00 in0.0 mm 0.00 in/hr0.0 mm/hr 0.01 in0.3 mm
02:45 PM 61.5°F16.4°C 46.6°F8.1°C 58% 7.3 mph NW11.7 kmh NW 14.8 mph23.8 kmh 29.80 in1009.1 mb 0.00 in0.0 mm 0.00 in/hr0.0 mm/hr 0.01 in0.3 mm
02:30 PM 61.8°F16.6°C 46.8°F8.2°C 58% 3.8 mph N6.1 kmh N 12.5 mph20.1 kmh 29.81 in1009.5 mb 0.00 in0.0 mm 0.00 in/hr0.0 mm/hr 0.01 in0.3 mm
02:15 PM 61.2°F16.2°C 46.3°F7.9°C 58% 6.5 mph NNW10.5 kmh NNW 13.7 mph22.0 kmh 29.81 in1009.5 mb 0.00 in0.0 mm 0.00 in/hr0.0 mm/hr 0.01 in0.3 mm
02:00 PM 61.3°F16.3°C 46.4°F8.0°C 58% 3.1 mph NW5.0 kmh NW 8.0 mph12.9 kmh 29.81 in1009.5 mb 0.00 in0.0 mm 0.00 in/hr0.0 mm/hr 0.01 in0.3 mm
01:45 PM 61.7°F16.5°C 46.8°F8.2°C 58% 5.0 mph NE8.0 kmh NE 8.0 mph12.9 kmh 29.81 in1009.5 mb 0.00 in0.0 mm 0.00 in/hr0.0 mm/hr 0.01 in0.3 mm
01:30 PM 61.9°F16.6°C 46.5°F8.1°C 57% 5.7 mph NNE9.2 kmh NNE 11.4 mph18.3 kmh 29.82 in1009.8 mb 0.00 in0.0 mm 0.00 in/hr0.0 mm/hr 0.01 in0.3 mm
01:15 PM 60.1°F15.6°C 45.7°F7.6°C 59% 3.0 mph NNW4.8 kmh NNW 5.7 mph9.2 kmh 29.83 in1010.2 mb 0.00 in0.0 mm 0.00 in/hr0.0 mm/hr 0.01 in0.3 mm
01:00 PM 60.4°F15.8°C 45.5°F7.5°C 58% 3.9 mph NE6.3 kmh NE 6.8 mph10.9 kmh 29.83 in1010.2 mb 0.00 in0.0 mm 0.00 in/hr0.0 mm/hr 0.01 in0.3 mm
12:45 PM 59.8°F15.4°C 45.4°F7.4°C 59% 11.1 mph NE17.9 kmh NE 12.5 mph20.1 kmh 29.83 in1010.2 mb 0.00 in0.0 mm 0.00 in/hr0.0 mm/hr 0.01 in0.3 mm
12:30 PM 60.2°F15.7°C 45.4°F7.4°C 58% 4.1 mph NNE6.6 kmh NNE 6.8 mph10.9 kmh 29.83 in1010.2 mb 0.00 in0.0 mm 0.00 in/hr0.0 mm/hr 0.01 in0.3 mm
12:15 PM 60.1°F15.6°C 45.2°F7.3°C 58% 11.7 mph WNW18.8 kmh WNW 16.0 mph25.7 kmh 29.84 in1010.5 mb 0.00 in0.0 mm 0.00 in/hr0.0 mm/hr 0.01 in0.3 mm
12:00 PM 59.7°F15.4°C 46.2°F7.9°C 61% 3.0 mph N4.8 kmh N 4.6 mph7.4 kmh 29.84 in1010.5 mb 0.00 in0.0 mm 0.00 in/hr0.0 mm/hr 0.01 in0.3 mm
11:45 AM 59.5°F15.3°C 45.6°F7.6°C 60% 6.3 mph N10.1 kmh N 11.4 mph18.3 kmh 29.84 in1010.5 mb 0.00 in0.0 mm 0.00 in/hr0.0 mm/hr 0.01 in0.3 mm
11:30 AM 59.5°F15.3°C 45.6°F7.6°C 60% 8.1 mph N13.0 kmh N 6.8 mph10.9 kmh 29.84 in1010.5 mb 0.00 in0.0 mm 0.00 in/hr0.0 mm/hr 0.01 in0.3 mm
11:15 AM 58.9°F14.9°C 45.5°F7.5°C 61% 10.2 mph NE16.4 kmh NE 20.5 mph33.0 kmh 29.84 in1010.5 mb 0.00 in0.0 mm 0.00 in/hr0.0 mm/hr 0.01 in0.3 mm
11:00 AM 58.9°F14.9°C 45.0°F7.2°C 60% 7.9 mph NNE12.7 kmh NNE 8.0 mph12.9 kmh 29.84 in1010.5 mb 0.00 in0.0 mm 0.00 in/hr0.0 mm/hr 0.01 in0.3 mm
10:45 AM 58.4°F14.7°C 45.4°F7.4°C 62% 6.1 mph WNW9.8 kmh WNW 11.4 mph18.3 kmh 29.84 in1010.5 mb 0.01 in0.3 mm 0.04 in/hr1.0 mm/hr 0.01 in0.3 mm
10:30 AM 57.7°F14.3°C 45.2°F7.3°C 63% 2.3 mph N3.7 kmh N 11.4 mph18.3 kmh 29.84 in1010.5 mb 0.00 in0.0 mm 0.00 in/hr0.0 mm/hr 0.00 in0.0 mm
10:15 AM 56.1°F13.4°C 44.5°F6.9°C 65% 4.8 mph NNW7.7 kmh NNW 11.4 mph18.3 kmh 29.85 in1010.8 mb 0.00 in0.0 mm 0.00 in/hr0.0 mm/hr 0.00 in0.0 mm
10:00 AM 55.9°F13.3°C 44.7°F7.1°C 66% 4.7 mph N7.6 kmh N 17.1 mph27.5 kmh 29.85 in1010.8 mb 0.00 in0.0 mm 0.00 in/hr0.0 mm/hr 0.00 in0.0 mm
09:45 AM 55.4°F13.0°C 44.6°F7.0°C 67% 4.6 mph NE7.4 kmh NE 6.8 mph10.9 kmh 29.83 in1010.2 mb 0.00 in0.0 mm 0.00 in/hr0.0 mm/hr 0.00 in0.0 mm
09:30 AM 54.6°F12.6°C 44.3°F6.8°C 68% 6.3 mph NE10.1 kmh NE 10.3 mph16.6 kmh 29.83 in1010.2 mb 0.00 in0.0 mm 0.00 in/hr0.0 mm/hr 0.00 in0.0 mm
09:15 AM 53.8°F12.1°C 43.8°F6.6°C 69% 3.1 mph NNE5.0 kmh NNE 3.4 mph5.5 kmh 29.84 in1010.5 mb 0.00 in0.0 mm 0.00 in/hr0.0 mm/hr 0.00 in0.0 mm
09:00 AM 53.3°F11.8°C 43.8°F6.6°C 70% 3.9 mph WNW6.3 kmh WNW 6.8 mph10.9 kmh 29.84 in1010.5 mb 0.00 in0.0 mm 0.00 in/hr0.0 mm/hr 0.00 in0.0 mm
08:45 AM 52.9°F11.6°C 43.8°F6.6°C 71% 5.0 mph NNE8.0 kmh NNE 11.4 mph18.3 kmh 29.84 in1010.5 mb 0.00 in0.0 mm 0.00 in/hr0.0 mm/hr 0.00 in0.0 mm
08:30 AM 52.8°F11.6°C 43.7°F6.5°C 71% 4.2 mph NNE6.8 kmh NNE 10.3 mph16.6 kmh 29.84 in1010.5 mb 0.00 in0.0 mm 0.00 in/hr0.0 mm/hr 0.00 in0.0 mm
08:15 AM 52.6°F11.4°C 43.5°F6.4°C 71% 4.3 mph NW6.9 kmh NW 6.8 mph10.9 kmh 29.84 in1010.5 mb 0.00 in0.0 mm 0.00 in/hr0.0 mm/hr 0.00 in0.0 mm
08:00 AM 52.7°F11.5°C 43.6°F6.4°C 71% 5.0 mph NNE8.0 kmh NNE 8.0 mph12.9 kmh 29.83 in1010.2 mb 0.00 in0.0 mm 0.00 in/hr0.0 mm/hr 0.00 in0.0 mm
07:45 AM 52.6°F11.4°C 43.5°F6.4°C 71% 4.3 mph NW6.9 kmh NW 12.5 mph20.1 kmh 29.83 in1010.2 mb 0.00 in0.0 mm 0.00 in/hr0.0 mm/hr 0.00 in0.0 mm
07:30 AM 52.6°F11.4°C 43.1°F6.2°C 70% 2.6 mph NNW4.2 kmh NNW 6.8 mph10.9 kmh 29.83 in1010.2 mb 0.00 in0.0 mm 0.00 in/hr0.0 mm/hr 0.00 in0.0 mm
07:15 AM 52.7°F11.5°C 43.2°F6.2°C 70% 0.7 mph N1.1 kmh N 4.6 mph7.4 kmh 29.83 in1010.2 mb 0.00 in0.0 mm 0.00 in/hr0.0 mm/hr 0.00 in0.0 mm
07:00 AM 52.7°F11.5°C 43.5°F6.4°C 71% 5.8 mph NE9.3 kmh NE 5.7 mph9.2 kmh 29.84 in1010.5 mb 0.00 in0.0 mm 0.00 in/hr0.0 mm/hr 0.00 in0.0 mm
06:45 AM 52.4°F11.3°C 43.3°F6.3°C 71% 5.1 mph NE8.2 kmh NE 6.8 mph10.9 kmh 29.84 in1010.5 mb 0.00 in0.0 mm 0.00 in/hr0.0 mm/hr 0.00 in0.0 mm
06:30 AM 52.2°F11.2°C 43.4°F6.3°C 72% 5.0 mph NE8.0 kmh NE 8.0 mph12.9 kmh 29.84 in1010.5 mb 0.00 in0.0 mm 0.00 in/hr0.0 mm/hr 0.00 in0.0 mm
06:15 AM 52.0°F11.1°C 43.6°F6.4°C 73% 2.2 mph W3.5 kmh W 2.3 mph3.7 kmh 29.84 in1010.5 mb 0.00 in0.0 mm 0.00 in/hr0.0 mm/hr 0.00 in0.0 mm
06:00 AM 51.7°F10.9°C 43.3°F6.3°C 73% 3.4 mph NE5.5 kmh NE 6.8 mph10.9 kmh 29.84 in1010.5 mb 0.00 in0.0 mm 0.00 in/hr0.0 mm/hr 0.00 in0.0 mm
05:45 AM 51.6°F10.9°C 43.2°F6.2°C 73% 0.6 mph NNE1.0 kmh NNE 4.6 mph7.4 kmh 29.83 in1010.2 mb 0.00 in0.0 mm 0.00 in/hr0.0 mm/hr 0.00 in0.0 mm
05:30 AM 51.7°F10.9°C 43.3°F6.3°C 73% 4.0 mph W6.4 kmh W 3.4 mph5.5 kmh 29.83 in1010.2 mb 0.00 in0.0 mm 0.00 in/hr0.0 mm/hr 0.00 in0.0 mm
05:15 AM 51.7°F10.9°C 43.3°F6.3°C 73% 0.7 mph WNW1.1 kmh WNW 5.7 mph9.2 kmh 29.83 in1010.2 mb 0.00 in0.0 mm 0.00 in/hr0.0 mm/hr 0.00 in0.0 mm
05:00 AM 51.8°F11.0°C 43.1°F6.2°C 72% 3.4 mph N5.5 kmh N 10.3 mph16.6 kmh 29.83 in1010.2 mb 0.00 in0.0 mm 0.00 in/hr0.0 mm/hr 0.00 in0.0 mm
04:45 AM 51.8°F11.0°C 43.1°F6.2°C 72% 1.7 mph NW2.7 kmh NW 4.6 mph7.4 kmh 29.83 in1010.2 mb 0.00 in0.0 mm 0.00 in/hr0.0 mm/hr 0.00 in0.0 mm
04:30 AM 51.8°F11.0°C 43.1°F6.2°C 72% 0.3 mph NW0.5 kmh NW 2.3 mph3.7 kmh 29.83 in1010.2 mb 0.00 in0.0 mm 0.00 in/hr0.0 mm/hr 0.00 in0.0 mm
04:15 AM 51.8°F11.0°C 43.1°F6.2°C 72% 1.9 mph NW3.1 kmh NW 5.7 mph9.2 kmh 29.83 in1010.2 mb 0.00 in0.0 mm 0.00 in/hr0.0 mm/hr 0.00 in0.0 mm
04:00 AM 51.8°F11.0°C 43.1°F6.2°C 72% 0.8 mph NW1.3 kmh NW 3.4 mph5.5 kmh 29.82 in1009.8 mb 0.00 in0.0 mm 0.00 in/hr0.0 mm/hr 0.00 in0.0 mm
03:45 AM 51.8°F11.0°C 43.1°F6.2°C 72% 3.4 mph N5.5 kmh N 4.6 mph7.4 kmh 29.82 in1009.8 mb 0.00 in0.0 mm 0.00 in/hr0.0 mm/hr 0.00 in0.0 mm
03:30 AM 51.9°F11.1°C 42.8°F6.0°C 71% 0.2 mph N0.3 kmh N 6.8 mph10.9 kmh 29.83 in1010.2 mb 0.00 in0.0 mm 0.00 in/hr0.0 mm/hr 0.00 in0.0 mm
03:15 AM 51.9°F11.1°C 43.2°F6.2°C 72% 1.5 mph NNE2.4 kmh NNE 6.8 mph10.9 kmh 29.83 in1010.2 mb 0.00 in0.0 mm 0.00 in/hr0.0 mm/hr 0.00 in0.0 mm
03:00 AM 51.9°F11.1°C 43.2°F6.2°C 72% 0.1 mph W0.2 kmh W 2.3 mph3.7 kmh 29.84 in1010.5 mb 0.00 in0.0 mm 0.00 in/hr0.0 mm/hr 0.00 in0.0 mm
02:45 AM 51.9°F11.1°C 43.2°F6.2°C 72% 1.1 mph W1.8 kmh W 8.0 mph12.9 kmh 29.84 in1010.5 mb 0.00 in0.0 mm 0.00 in/hr0.0 mm/hr 0.00 in0.0 mm
02:30 AM 51.8°F11.0°C 43.1°F6.2°C 72% 0.9 mph WNW1.4 kmh WNW 5.7 mph9.2 kmh 29.84 in1010.5 mb 0.00 in0.0 mm 0.00 in/hr0.0 mm/hr 0.00 in0.0 mm
02:15 AM 51.8°F11.0°C 43.1°F6.2°C 72% 1.2 mph NE1.9 kmh NE 4.6 mph7.4 kmh 29.85 in1010.8 mb 0.00 in0.0 mm 0.00 in/hr0.0 mm/hr 0.00 in0.0 mm
02:00 AM 51.9°F11.1°C 43.2°F6.2°C 72% 4.5 mph NW7.2 kmh NW 8.0 mph12.9 kmh 29.85 in1010.8 mb 0.00 in0.0 mm 0.00 in/hr0.0 mm/hr 0.00 in0.0 mm
01:45 AM 51.9°F11.1°C 43.2°F6.2°C 72% 3.4 mph N5.5 kmh N 5.7 mph9.2 kmh 29.85 in1010.8 mb 0.00 in0.0 mm 0.00 in/hr0.0 mm/hr 0.00 in0.0 mm
01:30 AM 52.1°F11.2°C 43.3°F6.3°C 72% 0.8 mph N1.3 kmh N 3.4 mph5.5 kmh 29.86 in1011.2 mb 0.00 in0.0 mm 0.00 in/hr0.0 mm/hr 0.00 in0.0 mm
01:15 AM 52.1°F11.2°C 43.0°F6.1°C 71% 4.5 mph WNW7.2 kmh WNW 13.7 mph22.0 kmh 29.86 in1011.2 mb 0.00 in0.0 mm 0.00 in/hr0.0 mm/hr 0.00 in0.0 mm
01:00 AM 52.2°F11.2°C 43.5°F6.4°C 72% 1.2 mph NW1.9 kmh NW 8.0 mph12.9 kmh 29.86 in1011.2 mb 0.00 in0.0 mm 0.00 in/hr0.0 mm/hr 0.00 in0.0 mm
12:45 AM 52.3°F11.3°C 43.2°F6.2°C 71% Calm Calm -- 29.87 in1011.5 mb 0.00 in0.0 mm 0.00 in/hr0.0 mm/hr 0.00 in0.0 mm
12:30 AM 52.4°F11.3°C 43.3°F6.3°C 71% 6.7 mph NW10.8 kmh NW 11.4 mph18.3 kmh 29.87 in1011.5 mb 0.00 in0.0 mm 0.00 in/hr0.0 mm/hr 0.00 in0.0 mm
12:15 AM 52.4°F11.3°C 43.3°F6.3°C 71% 1.2 mph N1.9 kmh N 2.3 mph3.7 kmh 29.87 in1011.5 mb 0.00 in0.0 mm 0.00 in/hr0.0 mm/hr 0.00 in0.0 mm
12:01 AM 52.6°F11.4°C 43.4°F6.3°C 71% 1.8 mph NNW2.9 kmh NNW 11.4 mph18.3 kmh 29.88 in1011.9 mb 0.00 in0.0 mm 0.00 in/hr0.0 mm/hr 0.00 in0.0 mm